Terminal Aerodrome Forecast
Issued by NWS Cleveland, OH

Home | Current Version | Previous Version | Text Only | Print | Product List | Glossary On
Versions: 1 2 3 4 5 6 7 8 9 10 11 12 13 14 15 16 17
000
FTUS41 KCLE 311100
TAFYNG
TAF
KYNG 311140Z 3112/0112 21008KT 5SM -SHRA BR SCT006 OVC035
      TEMPO 3112/3113 2SM -SHRA BR
     FM311400 22008KT 5SM -SHRA BR BKN006 OVC015
     FM311800 22008KT P6SM VCTS SCT006CB OVC015
      TEMPO 3118/3122 4SM -SHRA SCT006 OVC015
     FM312300 22008KT P6SM OVC020
     FM010600 21005KT 5SM BR OVC012=

USA.gov is the U.S. government's official web portal to all federal, state and local government web resources and services.